Time;durP1;ratioP1;P1;durP2;ratioP2;P2;SDS_P1;SDS_P2;PMS_P1;PMS_P2;Temp;Humidity;BMP_temperature;BMP_pressure;BME280_temperature;BME280_humidity;BME280_pressure;Samples;Min_cycle;Max_cycle;Signal;HPM_P1;HPM_P2
2021/09/24 01:59:36;;;;;;;3.63;1.10;;;;;;;20.67;54.42;101692.91;5201191;24;20059;-80
2021/09/24 02:02:04;;;;;;;3.17;1.30;;;;;;;20.70;54.20;101699.88;4787359;30;20036;-80
2021/09/24 02:04:31;;;;;;;5.03;1.38;;;;;;;20.70;54.35;101697.25;4757329;30;20081;-79
2021/09/24 02:06:57;;;;;;;3.45;1.23;;;;;;;20.70;54.27;101705.09;4770178;30;20043;-80
2021/09/24 02:09:23;;;;;;;3.20;1.35;;;;;;;20.69;54.32;101696.41;4744314;30;20039;-80
2021/09/24 02:12:11;;;;;;;3.90;1.17;;;;;;;20.69;54.43;101693.78;4791539;30;20028;-81
2021/09/24 02:14:39;;;;;;;5.47;1.33;;;;;;;20.70;54.27;101694.63;4775451;30;20036;-80
2021/09/24 02:17:23;;;;;;;2.65;1.08;;;;;;;20.68;54.38;101684.19;4776044;30;20044;-82
2021/09/24 02:20:13;;;;;;;4.57;1.33;;;;;;;20.69;54.29;101679.84;4754442;30;20044;-80
2021/09/24 02:23:02;;;;;;;3.67;1.10;;;;;;;20.69;54.35;101679.84;4738422;30;20094;-82
2021/09/24 02:25:34;;;;;;;4.93;1.20;;;;;;;20.68;54.29;101678.94;4754302;30;20037;-81
2021/09/24 02:28:00;;;;;;;4.03;1.20;;;;;;;20.67;54.38;101682.47;4750616;30;20040;-80
2021/09/24 02:30:26;;;;;;;4.38;1.33;;;;;;;20.68;54.16;101675.47;4735320;30;20037;-80
2021/09/24 02:32:51;;;;;;;4.95;1.30;;;;;;;20.69;54.21;101677.22;4750362;30;20067;-80
2021/09/24 02:35:24;;;;;;;3.58;1.25;;;;;;;20.69;54.30;101691.16;4721167;30;20083;-80
2021/09/24 02:37:54;;;;;;;5.38;1.30;;;;;;;20.66;54.27;101678.09;4734837;30;20154;-80
2021/09/24 02:40:21;;;;;;;6.53;1.10;;;;;;;20.68;54.28;101676.34;4749528;30;20048;-80
2021/09/24 02:42:47;;;;;;;4.80;1.30;;;;;;;20.67;54.38;101685.06;4735396;30;20068;-80
2021/09/24 02:45:15;;;;;;;6.43;1.25;;;;;;;20.69;54.28;101688.53;4735551;30;20043;-80
2021/09/24 02:47:43;;;;;;;5.05;1.40;;;;;;;20.68;54.38;101689.41;4734856;30;20120;-80
2021/09/24 02:50:12;;;;;;;3.50;1.25;;;;;;;20.68;54.28;101685.94;4747929;30;20044;-80
2021/09/24 02:52:42;;;;;;;3.35;1.20;;;;;;;20.66;54.17;101685.06;4756973;30;20104;-82
2021/09/24 02:55:11;;;;;;;4.65;1.42;;;;;;;20.67;54.41;101681.59;4786543;30;20039;-80
2021/09/24 02:57:37;;;;;;;7.82;1.27;;;;;;;20.67;54.40;101677.22;4764351;30;20027;-80
2021/09/24 03:00:08;;;;;;;4.88;1.35;;;;;;;20.67;54.32;101674.63;4797985;30;20056;-80
2021/09/24 03:02:39;;;;;;;6.05;1.27;;;;;;;20.65;54.20;101671.16;4773970;30;20056;-80
2021/09/24 03:05:07;;;;;;;3.40;1.15;;;;;;;20.67;54.26;101679.84;4802617;29;20046;-80
2021/09/24 03:07:39;;;;;;;3.90;1.08;;;;;;;20.66;54.39;101678.09;4786794;30;20035;-80
2021/09/24 03:10:06;;;;;;;5.50;1.30;;;;;;;20.66;54.34;101680.72;4785249;30;20038;-80
2021/09/24 03:12:31;;;;;;;3.50;1.33;;;;;;;20.66;54.39;101672.00;4803616;30;20095;-80
2021/09/24 03:15:14;;;;;;;5.95;1.42;;;;;;;20.66;54.37;101666.78;4789370;30;20052;-81
2021/09/24 03:17:49;;;;;;;2.22;1.10;;;;;;;20.66;54.63;101666.78;4791417;30;20392;-81
2021/09/24 03:20:18;;;;;;;4.35;1.17;;;;;;;20.65;54.34;101663.28;4785557;30;20028;-81
2021/09/24 03:22:47;;;;;;;3.47;1.20;;;;;;;20.64;54.42;101661.53;4785738;30;20041;-80
2021/09/24 03:25:21;;;;;;;3.03;1.27;;;;;;;20.65;54.50;101665.06;4802986;30;20028;-81
2021/09/24 03:27:47;;;;;;;3.55;1.15;;;;;;;20.65;54.43;101665.91;4786561;30;20095;-80
2021/09/24 03:30:15;;;;;;;2.45;1.10;;;;;;;20.66;54.63;101672.00;4789134;30;20032;-80
2021/09/24 03:32:41;;;;;;;6.75;1.70;;;;;;;20.66;54.26;101661.53;4802682;30;20062;-80
2021/09/24 03:35:08;;;;;;;3.88;1.20;;;;;;;20.64;54.47;101661.53;4786650;30;20475;-80
2021/09/24 03:37:55;;;;;;;4.95;1.40;;;;;;;20.65;54.49;101659.81;4791698;30;20035;-81
2021/09/24 03:40:32;;;;;;;3.72;1.10;;;;;;;20.64;54.50;101660.69;4764063;30;20036;-81
2021/09/24 03:43:05;;;;;;;3.33;1.25;;;;;;;20.62;54.57;101660.72;4793138;30;20031;-81
2021/09/24 04:00:04;;;;;;;3.75;1.13;;;;;;;20.63;54.51;101657.22;5308996;24;20048;-82
2021/09/24 04:02:30;;;;;;;4.18;1.30;;;;;;;20.62;54.65;101659.84;4769483;30;20047;-82
2021/09/24 04:04:56;;;;;;;4.65;1.15;;;;;;;20.61;54.49;101655.50;4789888;30;20040;-80
2021/09/24 04:07:23;;;;;;;4.85;1.15;;;;;;;20.62;54.53;101657.22;4792981;30;20028;-80
2021/09/24 04:09:50;;;;;;;3.28;1.17;;;;;;;20.61;54.53;101648.50;4793881;30;20035;-81
2021/09/24 04:12:20;;;;;;;2.92;1.20;;;;;;;20.62;54.46;101649.38;4790703;30;20040;-81
2021/09/24 04:14:47;;;;;;;4.38;1.00;;;;;;;20.61;54.37;101643.28;4778990;30;20028;-80
2021/09/24 06:00:27;;;;;;;5.60;1.95;;;;;;;20.80;54.59;101624.81;5104403;24;20043;-81
2021/09/24 06:03:19;;;;;;;5.07;2.10;;;;;;;20.82;54.34;101630.84;4773095;30;20135;-80
2021/09/24 06:06:04;;;;;;;5.57;2.15;;;;;;;20.89;54.15;101628.19;4775278;30;20068;-81
2021/09/24 06:13:39;;;;;;;12.55;2.42;;;;;;;20.85;54.35;101639.56;4933722;24;20074;-79
2021/09/24 06:16:06;;;;;;;6.07;2.10;;;;;;;20.87;54.14;101644.78;4754731;30;20399;-80
2021/09/24 06:18:33;;;;;;;8.02;2.15;;;;;;;20.85;54.31;101636.94;4760338;30;20047;-80
2021/09/24 06:21:02;;;;;;;5.82;2.03;;;;;;;20.83;54.42;101643.06;4787180;30;20027;-81
2021/09/24 06:23:28;;;;;;;7.00;1.88;;;;;;;20.78;54.13;101639.66;4742534;30;20039;-80
2021/09/24 06:25:58;;;;;;;10.00;2.63;;;;;;;20.70;53.59;101637.97;4786551;30;20157;-80
2021/09/24 06:28:24;;;;;;;8.75;2.60;;;;;;;20.68;54.10;101644.09;4767467;30;20035;-80
2021/09/24 06:30:49;;;;;;;11.23;2.45;;;;;;;20.68;53.73;101642.34;4768011;30;20032;-80
2021/09/24 06:33:16;;;;;;;13.45;2.75;;;;;;;20.65;53.59;101637.16;4767668;30;20032;-80
2021/09/24 06:35:42;;;;;;;13.68;2.78;;;;;;;20.64;53.47;101640.63;4752248;30;20047;-80
2021/09/24 06:38:07;;;;;;;11.43;3.03;;;;;;;20.63;53.43;101641.53;4767193;30;20063;-80
2021/09/24 06:40:35;;;;;;;12.90;2.90;;;;;;;20.61;53.17;101642.41;4786415;30;20039;-80
2021/09/24 06:43:01;;;;;;;9.05;2.75;;;;;;;20.60;53.27;101638.94;4770367;30;20376;-80
2021/09/24 06:45:27;;;;;;;10.15;2.85;;;;;;;20.61;53.20;101638.06;4769753;30;20035;-80
2021/09/24 06:47:56;;;;;;;8.18;2.83;;;;;;;20.59;53.56;101642.44;4757857;30;20060;-81
2021/09/24 06:50:59;;;;;;;12.55;2.95;;;;;;;20.61;53.46;101637.19;4749447;30;20016;-81
2021/09/24 06:53:33;;;;;;;11.05;2.80;;;;;;;20.61;53.55;101647.66;4779191;30;20024;-81
2021/09/24 06:59:51;;;;;;;14.07;2.65;;;;;;;20.62;53.75;101644.13;4794994;29;20023;-81
2021/09/24 07:02:45;;;;;;;8.05;2.80;;;;;;;20.63;53.87;101645.88;4777973;30;20221;-81
2021/09/24 07:05:12;;;;;;;14.38;3.15;;;;;;;20.61;54.05;101645.91;4787143;30;20028;-81
2021/09/24 07:07:58;;;;;;;7.53;2.33;;;;;;;20.63;54.07;101646.75;4774071;30;20083;-81
2021/09/24 07:10:26;;;;;;;14.82;2.92;;;;;;;20.64;54.21;101645.84;4787456;30;20043;-81
2021/09/24 07:12:55;;;;;;;10.40;3.03;;;;;;;20.65;54.16;101637.16;4773683;30;20063;-81
2021/09/24 07:32:03;;;;;;;6.20;2.15;;;;;;;20.95;53.52;101637.72;4877478;24;20064;-82
2021/09/24 07:34:34;;;;;;;5.50;2.33;;;;;;;20.92;53.71;101641.22;4773865;30;20032;-82
2021/09/24 07:37:01;;;;;;;8.43;2.63;;;;;;;20.91;53.95;101634.25;4774750;30;20032;-82
2021/09/24 07:39:28;;;;;;;8.65;2.20;;;;;;;20.92;54.02;101633.38;4776592;30;20103;-82
2021/09/24 07:42:26;;;;;;;6.95;2.55;;;;;;;20.92;53.99;101638.59;4791982;30;20028;-82
2021/09/24 07:45:37;;;;;;;8.32;2.42;;;;;;;20.92;54.09;101638.59;4795274;30;20054;-82
2021/09/24 09:15:53;;;;;;;4.88;1.85;;;;;;;21.43;52.92;101624.09;5001464;24;20036;-81
2021/09/24 11:18:52;;;;;;;2.92;1.88;;;;;;;21.48;53.66;101570.75;4882809;24;20060;-80
2021/09/24 11:21:56;;;;;;;2.78;1.60;;;;;;;21.51;53.59;101569.84;4767873;30;20044;-79
2021/09/24 11:25:04;;;;;;;5.65;1.85;;;;;;;21.53;53.65;101573.31;4751322;30;20028;-79
2021/09/24 12:01:23;;;;;;;2.83;1.60;;;;;;;21.57;53.81;101562.75;3578289;28;20049;-78
2021/09/24 12:04:16;;;;;;;4.38;1.88;;;;;;;21.57;53.82;101562.75;4739901;30;20236;-80
2021/09/24 12:10:35;;;;;;;3.30;1.55;;;;;;;21.60;53.93;101564.50;4739288;30;20048;-81
2021/09/24 13:28:49;;;;;;;3.03;1.40;;;;;;;21.78;53.52;101556.34;5691923;24;20026;-80
2021/09/24 13:31:15;;;;;;;2.85;1.50;;;;;;;21.76;53.55;101555.50;4787352;29;20091;-79
2021/09/24 13:33:41;;;;;;;2.50;1.27;;;;;;;21.73;53.59;101550.31;4764792;30;20134;-80
2021/09/24 13:36:07;;;;;;;2.35;1.30;;;;;;;21.77;53.37;101545.88;4767703;30;20043;-79
2021/09/24 13:38:57;;;;;;;7.28;1.30;;;;;;;21.77;53.54;101546.78;4784386;30;20040;-81
2021/09/24 13:41:26;;;;;;;6.03;1.73;;;;;;;21.80;53.46;101548.47;4770969;30;20036;-80
2021/09/24 13:44:14;;;;;;;9.10;1.35;;;;;;;21.84;53.60;101544.03;4784910;30;20019;-81
2021/09/24 14:09:50;;;;;;;3.70;1.30;;;;;;;21.84;53.87;101529.19;3902197;28;20064;-81
2021/09/24 14:29:49;;;;;;;4.05;1.40;;;;;;;21.87;53.81;101505.53;4776271;30;20048;-81
